TimeCST,TemperatureF,Dew PointF,Humidity,Sea Level PressureIn,VisibilityMPH,Wind Direction,Wind SpeedMPH,Gust SpeedMPH,PrecipitationIn,Events,Conditions,WindDirDegrees,DateUTC
12:15 AM,28.4,27.5,96,30.24,5.0,NNW,8.1,-,N/A,,Overcast,340,2014-02-12 06:15:00
12:35 AM,28.4,27.5,96,30.23,5.0,NNW,5.8,-,N/A,,Overcast,340,2014-02-12 06:35:00
12:55 AM,28.2,27.3,96,30.20,5.0,North,5.8,-,N/A,,Overcast,350,2014-02-12 06:55:00
1:15 AM,28.4,27.5,96,30.19,5.0,North,5.8,-,N/A,,Overcast,350,2014-02-12 07:15:00
1:35 AM,28.4,27.5,96,30.20,5.0,NNW,4.6,-,N/A,,Overcast,330,2014-02-12 07:35:00
1:55 AM,28.4,27.5,96,30.19,5.0,NW,3.5,-,N/A,,Overcast,320,2014-02-12 07:55:00
2:15 AM,28.4,27.5,96,30.19,5.0,NW,3.5,-,N/A,,Overcast,320,2014-02-12 08:15:00
2:35 AM,28.4,27.5,96,30.18,5.0,NW,3.5,-,N/A,,Overcast,320,2014-02-12 08:35:00
2:55 AM,28.4,27.5,96,30.19,5.0,NW,4.6,-,N/A,,Overcast,310,2014-02-12 08:55:00
3:15 AM,28.4,27.5,96,30.18,5.0,WNW,3.5,-,N/A,,Overcast,300,2014-02-12 09:15:00
3:35 AM,28.6,27.7,96,30.18,7.0,NW,4.6,-,N/A,,Overcast,310,2014-02-12 09:35:00
3:55 AM,28.4,27.5,96,30.17,5.0,NW,3.5,-,N/A,,Overcast,310,2014-02-12 09:55:00
4:15 AM,28.6,27.7,96,30.16,5.0,Calm,Calm,-,N/A,,Overcast,0,2014-02-12 10:15:00
4:35 AM,28.4,27.5,96,30.16,7.0,NW,4.6,-,N/A,,Overcast,310,2014-02-12 10:35:00
4:55 AM,28.8,27.9,96,30.16,7.0,NW,4.6,-,N/A,,Overcast,310,2014-02-12 10:55:00
5:15 AM,28.4,27.5,96,30.16,7.0,WNW,4.6,-,N/A,,Overcast,300,2014-02-12 11:15:00
5:35 AM,28.4,27.5,96,30.16,7.0,WNW,4.6,-,N/A,,Overcast,300,2014-02-12 11:35:00
5:55 AM,28.4,27.5,96,30.16,7.0,WNW,3.5,-,N/A,,Overcast,300,2014-02-12 11:55:00
6:15 AM,28.4,27.0,94,30.17,10.0,WNW,4.6,-,N/A,,Mostly Cloudy,300,2014-02-12 12:15:00
6:35 AM,27.5,26.2,95,30.18,10.0,WNW,4.6,-,N/A,,Scattered Clouds,290,2014-02-12 12:35:00
6:55 AM,27.0,25.7,95,30.18,10.0,West,5.8,-,N/A,,Clear,280,2014-02-12 12:55:00
7:15 AM,26.6,25.3,95,30.19,10.0,West,5.8,-,N/A,,Clear,280,2014-02-12 13:15:00
7:35 AM,26.4,25.0,94,30.19,10.0,West,6.9,-,N/A,,Scattered Clouds,280,2014-02-12 13:35:00
7:55 AM,27.1,25.5,94,30.20,10.0,West,5.8,-,N/A,,Mostly Cloudy,280,2014-02-12 13:55:00
8:15 AM,27.7,26.1,94,30.20,10.0,West,4.6,-,N/A,,Scattered Clouds,280,2014-02-12 14:15:00
8:35 AM,29.1,26.4,90,30.21,10.0,WNW,5.8,-,N/A,,Clear,300,2014-02-12 14:35:00
8:55 AM,30.4,26.8,86,30.21,10.0,NW,4.6,-,N/A,,Clear,310,2014-02-12 14:55:00
9:15 AM,31.1,27.7,87,30.22,10.0,NW,6.9,-,N/A,,Clear,320,2014-02-12 15:15:00
9:35 AM,32.0,29.3,90,30.22,10.0,NW,4.6,-,N/A,,Clear,310,2014-02-12 15:35:00
9:55 AM,33.6,29.3,84,30.22,10.0,NNW,6.9,-,N/A,,Clear,330,2014-02-12 15:55:00
10:15 AM,34.5,28.8,79,30.21,10.0,NNW,5.8,-,N/A,,Clear,330,2014-02-12 16:15:00
10:35 AM,35.1,28.6,77,30.21,10.0,North,6.9,-,N/A,,Clear,350,2014-02-12 16:35:00
10:55 AM,36.3,29.1,75,30.21,10.0,North,8.1,-,N/A,,Scattered Clouds,350,2014-02-12 16:55:00
11:15 AM,37.2,28.9,72,30.20,10.0,NNW,6.9,-,N/A,,Scattered Clouds,330,2014-02-12 17:15:00
11:35 AM,37.9,28.4,69,30.19,10.0,WNW,4.6,-,N/A,,Clear,290,2014-02-12 17:35:00
11:55 AM,39.2,29.1,67,30.18,10.0,WNW,3.5,-,N/A,,Clear,290,2014-02-12 17:55:00
12:15 PM,40.3,29.7,66,30.17,10.0,NW,5.8,-,N/A,,Clear,310,2014-02-12 18:15:00
12:35 PM,41.7,30.6,65,30.17,10.0,NW,5.8,-,N/A,,Clear,310,2014-02-12 18:35:00
12:55 PM,42.6,30.6,62,30.16,10.0,WNW,5.8,-,N/A,,Clear,300,2014-02-12 18:55:00
1:15 PM,43.3,30.9,62,30.14,10.0,WNW,8.1,-,N/A,,Clear,290,2014-02-12 19:15:00
1:35 PM,44.4,30.7,59,30.12,10.0,NW,3.5,-,N/A,,Clear,320,2014-02-12 19:35:00
1:55 PM,46.4,31.6,56,30.11,10.0,West,6.9,-,N/A,,Clear,280,2014-02-12 19:55:00
2:15 PM,47.1,31.3,54,30.10,10.0,NNW,9.2,-,N/A,,Clear,340,2014-02-12 20:15:00
2:35 PM,48.0,31.3,52,30.09,10.0,NW,6.9,-,N/A,,Clear,320,2014-02-12 20:35:00
2:55 PM,49.5,30.6,48,30.09,10.0,NNW,8.1,-,N/A,,Clear,330,2014-02-12 20:55:00
3:15 PM,50.5,31.1,47,30.09,10.0,NNW,8.1,-,N/A,,Clear,330,2014-02-12 21:15:00
3:35 PM,51.6,30.9,45,30.07,10.0,NW,5.8,-,N/A,,Clear,310,2014-02-12 21:35:00
3:55 PM,51.4,31.3,46,30.06,10.0,NNW,11.5,19.6,N/A,,Clear,330,2014-02-12 21:55:00
4:15 PM,52.2,31.6,46,30.06,10.0,NW,8.1,-,N/A,,Clear,320,2014-02-12 22:15:00
4:35 PM,52.5,32.0,46,30.07,10.0,NNW,9.2,-,N/A,,Clear,330,2014-02-12 22:35:00
4:55 PM,52.2,32.4,47,30.07,10.0,NNW,12.7,17.3,N/A,,Clear,340,2014-02-12 22:55:00
5:15 PM,51.4,32.4,48,30.07,10.0,NNW,8.1,-,N/A,,Clear,340,2014-02-12 23:15:00
5:35 PM,50.4,32.5,50,30.07,10.0,North,9.2,-,N/A,,Clear,350,2014-02-12 23:35:00
5:55 PM,48.2,32.7,55,30.07,10.0,North,6.9,-,N/A,,Clear,350,2014-02-12 23:55:00
6:15 PM,46.8,32.2,57,30.07,10.0,North,4.6,-,N/A,,Clear,10,2014-02-13 00:15:00
6:35 PM,46.0,32.2,58,30.08,10.0,North,3.5,-,N/A,,Clear,10,2014-02-13 00:35:00
6:55 PM,45.5,32.2,60,30.08,10.0,Calm,Calm,-,N/A,,Clear,0,2014-02-13 00:55:00
7:15 PM,45.1,32.2,60,30.08,10.0,Calm,Calm,-,N/A,,Clear,0,2014-02-13 01:15:00
7:35 PM,44.2,32.0,62,30.08,10.0,Calm,Calm,-,N/A,,Clear,0,2014-02-13 01:35:00
7:55 PM,43.9,32.0,63,30.08,10.0,Calm,Calm,-,N/A,,Clear,0,2014-02-13 01:55:00
8:15 PM,43.9,32.2,63,30.08,10.0,Calm,Calm,-,N/A,,Clear,0,2014-02-13 02:15:00
8:35 PM,42.4,32.2,67,30.07,10.0,Calm,Calm,-,N/A,,Clear,0,2014-02-13 02:35:00
8:55 PM,44.2,32.0,62,30.08,10.0,Calm,Calm,-,N/A,,Clear,0,2014-02-13 02:55:00
9:15 PM,45.5,32.0,59,30.07,10.0,Calm,Calm,-,N/A,,Clear,0,2014-02-13 03:15:00
9:35 PM,39.2,32.0,75,30.08,10.0,SSW,5.8,-,N/A,,Clear,210,2014-02-13 03:35:00
9:55 PM,41.2,32.0,70,30.08,10.0,SSW,3.5,-,N/A,,Clear,210,2014-02-13 03:55:00
10:15 PM,41.5,31.6,68,30.08,10.0,SSW,5.8,-,N/A,,Clear,210,2014-02-13 04:15:00
10:35 PM,41.0,32.0,70,30.08,10.0,SW,4.6,-,N/A,,Clear,230,2014-02-13 04:35:00
10:55 PM,41.9,32.0,68,30.07,10.0,Calm,Calm,-,N/A,,Clear,0,2014-02-13 04:55:00
11:15 PM,41.5,31.8,68,30.07,10.0,WSW,4.6,-,N/A,,Clear,240,2014-02-13 05:15:00
11:35 PM,37.6,31.6,79,30.07,10.0,WNW,3.5,-,N/A,,Clear,300,2014-02-13 05:35:00
11:55 PM,37.8,31.8,79,30.07,10.0,WNW,5.8,-,N/A,,Clear,290,2014-02-13 05:55:00